Aérodrome :
LOGIN :

S'inscrire | Disclaimer

   EN    FR    IT 

 










Légende :    VFR   VFR Marginal   IFR   IFR Intensif   IFR Très Intensif
Visi : 
Plafond : 
>= 8 km
>= 3000ft
5 à 8 km
1000 à 3000 ft
1500m à 5 km
500 à 1000 ft
800 à 1500m
200 à 500 ft
< 800m
< 200 ft
Symboles :   Orages  Brouillard  Fortes neiges  Fortes précipitations  Vent > 20 kt
SIGMETs :   Divers  Orages  Givrage  Turbulence  Onde Orograph.  Cendres Volcan.






- Altitude de l'aérodrome : 286 ft
- Code IATA : FFD


EGVA - RAF Fairford

DERNIER METAR :
  • 230105Z AUTO 00000KT 9999 -DZ OVC007 17/16 A2991 RMK AO2 SLP131 $

METARs EXPIRÉS :
  • 230055Z AUTO 20003KT 9999 -DZ OVC008 17/16 A2991 RMK AO2 SLP131 P0000 T01740156 $
  • 230030Z AUTO 00000KT 9999 -DZ OVC008 17/15 A2991 RMK AO2 CIG 008V011 SLP131 $
  • 222355Z AUTO 29004KT 9999 -DZ OVC011 17/15 A2992 RMK AO2 SLP134 P0000 60000 T01740147 10209 20168 402310135 57004 $
  • 222310Z AUTO 25003KT 9999 -DZ OVC014 17/15 A2992 RMK AO2 SLP134 $
  • 222155Z AUTO 23003KT 9999 -DZ BKN018 OVC033 18/14 A2993 RMK AO2 SLP138 P0000 T01770142 $
  • 222130Z AUTO 27004KT 9999 -DZ BKN019 OVC038 17/13 A2993 RMK AO2 SLP138 $
  • 222055Z AUTO 27007KT 9999 -DZ BKN023 17/14 A2993 RMK AO2 BKN V OVC CIG 022 RWY09 SLP138 P0000 60000 T01730136 53004 $

Prévision TAF périmée.



MET'MAP, la Météo Aéronautique d'un coup d'oeil ! - Copyright ORBIFLY Décembre 2007 - Disclaimer

ORBIFLY MET'MAP TEAM :

Programmation & Développement : Alexandra Zaïnal
Sur une idée originale de : Baudouin d'Aumeries
Soutien technique & logistique : Manuel Goepfert
Assistance : Marc-Olivier Méhu




SOURCES & CREDITS :

   NOAA